Waverly, Florida
Current Conditions -  °F | °C
As of 11:53 PM on Wednesday 22 Oct 2014 (Local Time) from KGIF Reporting Station
Clear Clear  
Wind Chill: 68°   Ceiling: Unl
Heat Index: 68°   Visibility: 10mi
Dew Point: 60°   Wind: 8mph
Humidity: 76%   Direction: 50°NE
Pressure: 30.01"   Gusts: NA
Location:  27.98°N, 81.61°W
Report Text: KGIF 230353Z AUTO 05007KT 10SM CLR 20/16 A3001 RMK AO2 SLP159 T02000156
Loading
Personal Weather Stations






























Interactive Weather Map
Tropical Storm Tracking
New forecast layout! Learn more

10-Day Weather Forecast

Advertisements
Track Severe Weather on mobile